createdAt,value
2022-10-01T00:02:07.734Z,82.53
2022-10-01T00:04:37.623Z,82.59
2022-10-01T00:07:10.380Z,82.50
2022-10-01T00:09:38.748Z,82.41
2022-10-01T00:12:07.726Z,82.78
2022-10-01T00:14:39.284Z,83.33
2022-10-01T00:17:07.141Z,82.97
2022-10-01T00:19:34.957Z,83.21
2022-10-01T00:22:02.781Z,82.75
2022-10-01T00:24:30.449Z,83.07
2022-10-01T00:26:58.213Z,83.13
2022-10-01T00:29:25.845Z,83.18
2022-10-01T00:31:53.556Z,82.96
2022-10-01T00:34:21.397Z,83.06
2022-10-01T00:36:49.550Z,82.86
2022-10-01T00:39:17.217Z,82.78
2022-10-01T00:41:44.974Z,83.24
2022-10-01T00:44:36.197Z,83.28
2022-10-01T00:47:31.924Z,83.23
2022-10-01T00:50:22.609Z,83.29
2022-10-01T00:52:54.386Z,83.41
2022-10-01T00:55:26.823Z,83.46
2022-10-01T00:57:56.194Z,83.18
2022-10-01T01:00:24.022Z,83.41
2022-10-01T01:02:51.981Z,83.49
2022-10-01T01:05:20.045Z,83.48
2022-10-01T01:07:50.709Z,83.58
2022-10-01T01:10:49.565Z,83.52
2022-10-01T01:13:35.350Z,83.36
2022-10-01T01:16:12.907Z,83.30
2022-10-01T01:19:15.013Z,83.59
2022-10-01T01:21:48.102Z,83.42
2022-10-01T01:24:24.772Z,83.63
2022-10-01T01:26:58.782Z,83.74
2022-10-01T01:29:53.379Z,84.05
2022-10-01T01:32:36.394Z,83.99
2022-10-01T01:35:09.159Z,83.77
2022-10-01T01:37:44.926Z,83.90
2022-10-01T01:40:16.373Z,84.10
2022-10-01T01:42:46.697Z,84.16
2022-10-01T01:45:23.163Z,83.92
2022-10-01T01:47:56.165Z,83.54
2022-10-01T01:50:25.785Z,84.29
2022-10-01T01:52:54.546Z,83.98
2022-10-01T01:55:25.178Z,84.23
2022-10-01T01:57:54.585Z,84.11
2022-10-01T02:00:22.646Z,84.06
2022-10-01T02:02:54.154Z,83.97
2022-10-01T02:05:27.414Z,84.43
2022-10-01T02:08:22.075Z,84.12
2022-10-01T02:11:01.809Z,84.21
2022-10-01T02:13:44.673Z,84.49
2022-10-01T02:16:21.912Z,84.12
2022-10-01T02:19:05.049Z,84.09
2022-10-01T02:21:32.970Z,84.45
2022-10-01T02:24:14.694Z,84.62
2022-10-01T02:26:45.029Z,84.37
2022-10-01T02:29:16.889Z,84.16
2022-10-01T02:31:47.478Z,84.49
2022-10-01T02:34:20.218Z,84.23
2022-10-01T02:36:49.813Z,84.43
2022-10-01T02:39:19.217Z,84.31
2022-10-01T02:41:50.859Z,84.58
2022-10-01T02:44:23.870Z,84.35
2022-10-01T02:47:17.004Z,84.53
2022-10-01T02:49:44.969Z,84.39
2022-10-01T02:52:12.737Z,84.44
2022-10-01T02:54:43.365Z,84.34
2022-10-01T02:57:27.354Z,84.63
2022-10-01T03:00:00.183Z,84.48
2022-10-01T03:02:31.590Z,84.72
2022-10-01T03:05:00.375Z,84.30
2022-10-01T03:07:30.463Z,84.49
2022-10-01T03:09:58.373Z,84.41
2022-10-01T03:12:26.149Z,84.91
2022-10-01T03:14:53.886Z,84.71
2022-10-01T03:17:21.698Z,84.70
2022-10-01T03:19:49.433Z,84.64
2022-10-01T03:22:20.193Z,85.07
2022-10-01T03:24:51.497Z,84.94
2022-10-01T03:27:20.637Z,84.83
2022-10-01T03:29:48.878Z,84.70
2022-10-01T03:32:17.698Z,84.55
2022-10-01T03:34:45.671Z,84.78
2022-10-01T03:37:13.945Z,84.58
2022-10-01T03:39:41.705Z,84.55
2022-10-01T03:42:09.365Z,85.10
2022-10-01T03:44:37.340Z,84.26
2022-10-01T03:47:05.094Z,84.63
2022-10-01T03:49:33.985Z,84.46
2022-10-01T03:52:02.545Z,84.60
2022-10-01T03:54:31.569Z,84.59
2022-10-01T03:56:59.643Z,84.49
2022-10-01T03:59:27.613Z,84.62
2022-10-01T04:01:55.656Z,84.55
2022-10-01T04:04:23.525Z,84.67
2022-10-01T04:06:51.199Z,84.20
2022-10-01T04:09:18.961Z,84.20
2022-10-01T04:11:46.721Z,84.66
2022-10-01T04:14:14.401Z,84.34
2022-10-01T04:16:42.146Z,84.52
2022-10-01T04:19:09.906Z,84.39
2022-10-01T04:21:39.311Z,84.66
2022-10-01T04:24:07.089Z,84.37
2022-10-01T04:26:34.787Z,84.39
2022-10-01T04:29:02.483Z,84.46
2022-10-01T04:31:35.560Z,84.30
2022-10-01T04:34:04.283Z,84.29
2022-10-01T04:36:31.968Z,84.49
2022-10-01T04:39:02.402Z,84.57
2022-10-01T04:41:31.539Z,84.35
2022-10-01T04:44:00.407Z,84.36
2022-10-01T04:46:30.514Z,84.36
2022-10-01T04:48:58.548Z,84.24
2022-10-01T04:51:26.273Z,84.36
2022-10-01T04:53:54.054Z,84.32
2022-10-01T04:56:21.887Z,84.28
2022-10-01T04:58:49.684Z,84.34
2022-10-01T05:01:17.494Z,84.50
2022-10-01T05:03:45.238Z,84.28
2022-10-01T05:06:12.971Z,84.39
2022-10-01T05:08:40.739Z,84.46
2022-10-01T05:11:08.499Z,84.71
2022-10-01T05:13:37.676Z,84.66
2022-10-01T05:16:05.601Z,84.59
2022-10-01T05:18:33.543Z,84.67
2022-10-01T05:21:08.310Z,84.95
2022-10-01T05:23:35.927Z,84.83
2022-10-01T05:26:05.852Z,84.76
2022-10-01T05:28:35.058Z,84.79
2022-10-01T05:31:03.989Z,84.78
2022-10-01T05:33:31.785Z,85.01
2022-10-01T05:35:59.544Z,84.98
2022-10-01T05:38:27.162Z,85.19
2022-10-01T05:40:54.794Z,85.28
2022-10-01T05:43:22.419Z,85.21
2022-10-01T05:45:51.596Z,85.11
2022-10-01T05:48:19.487Z,85.21
2022-10-01T05:50:47.232Z,85.45
2022-10-01T05:53:16.162Z,85.26
2022-10-01T05:55:44.311Z,85.44
2022-10-01T05:58:14.092Z,85.40
2022-10-01T06:00:42.907Z,85.48
2022-10-01T06:03:13.210Z,85.45
2022-10-01T06:05:43.898Z,85.63
2022-10-01T06:08:12.382Z,85.52
2022-10-01T06:10:40.532Z,85.51
2022-10-01T06:13:08.284Z,85.63
2022-10-01T06:15:38.709Z,85.63
2022-10-01T06:18:08.717Z,85.95
2022-10-01T06:20:37.112Z,86.06
2022-10-01T06:23:07.517Z,85.71
2022-10-01T06:25:36.551Z,85.95
2022-10-01T06:28:06.097Z,85.91
2022-10-01T06:30:38.656Z,85.98
2022-10-01T06:33:15.398Z,85.86
2022-10-01T06:35:46.954Z,85.75
2022-10-01T06:38:16.220Z,85.83
2022-10-01T06:40:44.292Z,86.31
2022-10-01T06:43:11.955Z,86.05
2022-10-01T06:45:42.705Z,85.99
2022-10-01T06:48:14.070Z,85.87
2022-10-01T06:50:43.994Z,85.87
2022-10-01T06:53:13.152Z,85.91
2022-10-01T06:55:41.416Z,85.61
2022-10-01T06:58:12.765Z,86.06
2022-10-01T07:00:41.094Z,85.97
2022-10-01T07:03:14.042Z,86.12
2022-10-01T07:05:42.044Z,85.75
2022-10-01T07:08:09.953Z,85.72
2022-10-01T07:10:38.153Z,85.83
2022-10-01T07:13:18.525Z,85.78
2022-10-01T07:15:46.569Z,85.86
2022-10-01T07:18:14.647Z,86.22
2022-10-01T07:20:42.447Z,85.94
2022-10-01T07:23:15.488Z,86.10
2022-10-01T07:25:44.477Z,85.92
2022-10-01T07:28:18.732Z,86.28
2022-10-01T07:30:57.513Z,86.44
2022-10-01T07:33:25.280Z,86.21
2022-10-01T07:35:53.248Z,86.35
2022-10-01T07:38:21.317Z,86.34
2022-10-01T07:40:54.668Z,86.00
2022-10-01T07:43:23.051Z,85.93
2022-10-01T07:45:52.874Z,85.99
2022-10-01T07:48:20.703Z,85.87
2022-10-01T07:50:48.424Z,85.62
2022-10-01T07:53:16.512Z,85.87
2022-10-01T07:55:45.075Z,85.94
2022-10-01T07:58:12.840Z,85.84
2022-10-01T08:00:40.604Z,85.94
2022-10-01T08:03:12.122Z,85.99
2022-10-01T08:05:42.284Z,85.92
2022-10-01T08:08:09.953Z,85.73
2022-10-01T08:10:38.756Z,85.60
2022-10-01T08:13:15.622Z,85.58
2022-10-01T08:15:45.926Z,85.65
2022-10-01T08:18:14.075Z,85.53
2022-10-01T08:20:42.265Z,85.41
2022-10-01T08:23:15.161Z,85.29
2022-10-01T08:25:44.859Z,85.17
2022-10-01T08:28:12.906Z,85.27
2022-10-01T08:30:42.638Z,85.38
2022-10-01T08:33:12.325Z,85.27
2022-10-01T08:35:41.379Z,85.35
2022-10-01T08:38:09.935Z,85.27
2022-10-01T08:40:50.022Z,85.32
2022-10-01T08:43:41.081Z,85.29
2022-10-01T08:46:18.251Z,84.89
2022-10-01T08:49:08.556Z,84.90
2022-10-01T08:51:42.269Z,84.89
2022-10-01T08:54:42.902Z,85.04
2022-10-01T08:57:15.047Z,84.79
2022-10-01T08:59:45.486Z,84.74
2022-10-01T09:02:28.116Z,84.81
2022-10-01T09:05:02.984Z,84.71
2022-10-01T09:07:36.704Z,84.57
2022-10-01T09:10:36.037Z,84.63
2022-10-01T09:13:18.907Z,84.78
2022-10-01T09:15:53.165Z,84.80
2022-10-01T09:18:48.886Z,84.56
2022-10-01T09:21:28.229Z,84.76
2022-10-01T09:24:14.516Z,84.54
2022-10-01T09:26:49.042Z,84.49
2022-10-01T09:29:25.722Z,84.30
2022-10-01T09:31:55.306Z,84.03
2022-10-01T09:34:35.271Z,83.61
2022-10-01T09:37:21.659Z,83.80
2022-10-01T09:40:15.716Z,83.50
2022-10-01T09:42:44.073Z,83.58
2022-10-01T09:45:14.877Z,83.81
2022-10-01T09:47:48.206Z,83.44
2022-10-01T09:50:28.506Z,83.33
2022-10-01T09:53:00.388Z,83.32
2022-10-01T09:55:39.410Z,82.85
2022-10-01T09:58:17.196Z,82.89
2022-10-01T10:00:45.611Z,83.05
2022-10-01T10:03:27.919Z,82.65
2022-10-01T10:05:57.603Z,82.78
2022-10-01T10:08:35.756Z,82.32
2022-10-01T10:11:08.687Z,82.21
2022-10-01T10:13:49.236Z,82.35
2022-10-01T10:16:27.903Z,81.80
2022-10-01T10:19:00.691Z,81.57
2022-10-01T10:21:31.979Z,81.50
2022-10-01T10:24:02.837Z,81.31
2022-10-01T10:26:35.000Z,81.29
2022-10-01T10:29:04.902Z,81.14
2022-10-01T10:31:43.501Z,81.00
2022-10-01T10:34:38.523Z,80.89
2022-10-01T10:37:16.877Z,80.15
2022-10-01T10:39:51.244Z,80.51
2022-10-01T10:42:20.054Z,79.90
2022-10-01T10:44:51.093Z,80.00
2022-10-01T10:47:21.272Z,79.84
2022-10-01T10:49:57.180Z,80.01
2022-10-01T10:52:30.120Z,80.22
2022-10-01T10:55:00.154Z,79.62
2022-10-01T10:57:34.188Z,79.44
2022-10-01T11:00:11.953Z,79.50
2022-10-01T11:02:49.044Z,78.50
2022-10-01T11:05:32.989Z,78.41
2022-10-01T11:08:05.248Z,78.05
2022-10-01T11:11:10.438Z,78.11
2022-10-01T11:13:49.829Z,77.39
2022-10-01T11:17:00.288Z,77.54
2022-10-01T11:19:37.190Z,77.59
2022-10-01T11:22:28.890Z,77.48
2022-10-01T11:25:02.721Z,76.93
2022-10-01T11:28:01.167Z,76.35
2022-10-01T11:30:58.815Z,76.10
2022-10-01T11:34:15.925Z,75.93
2022-10-01T11:36:43.412Z,75.78
2022-10-01T11:39:17.736Z,75.53
2022-10-01T11:42:08.317Z,74.82
2022-10-01T11:44:43.791Z,74.57
2022-10-01T11:47:20.836Z,75.15
2022-10-01T11:50:19.339Z,75.08
2022-10-01T11:53:17.850Z,74.53
2022-10-01T11:56:18.868Z,74.93
2022-10-01T11:58:57.402Z,74.81
2022-10-01T12:01:50.702Z,74.72
2022-10-01T12:04:33.582Z,74.44
2022-10-01T12:07:12.288Z,74.16
2022-10-01T12:09:42.808Z,74.13
2022-10-01T12:12:19.700Z,73.61
2022-10-01T12:15:06.836Z,73.52
2022-10-01T12:17:47.112Z,73.25
2022-10-01T12:20:33.050Z,73.35
2022-10-01T12:23:05.328Z,73.48
2022-10-01T12:25:58.209Z,72.75
2022-10-01T12:28:38.946Z,72.73
2022-10-01T12:31:39.902Z,72.95
2022-10-01T12:34:25.605Z,72.63
2022-10-01T12:36:53.425Z,72.78
2022-10-01T12:39:38.996Z,72.60
2022-10-01T12:42:21.729Z,72.36
2022-10-01T12:44:58.594Z,72.26
2022-10-01T12:47:54.930Z,72.08
2022-10-01T12:50:38.973Z,71.82
2022-10-01T12:53:17.998Z,71.69
2022-10-01T12:56:01.380Z,71.44
2022-10-01T12:58:49.365Z,71.44
2022-10-01T13:01:29.318Z,71.55
2022-10-01T13:04:08.799Z,71.42
2022-10-01T13:07:00.487Z,71.67
2022-10-01T13:09:48.938Z,71.23
2022-10-01T13:12:36.973Z,71.54
2022-10-01T13:15:12.049Z,71.30
2022-10-01T13:17:50.213Z,71.17
2022-10-01T13:20:26.263Z,71.19
2022-10-01T13:23:07.334Z,71.08
2022-10-01T13:25:48.158Z,71.26
2022-10-01T13:28:26.850Z,71.08
2022-10-01T13:31:00.636Z,71.19
2022-10-01T13:33:36.085Z,70.89
2022-10-01T13:36:06.738Z,70.93
2022-10-01T13:38:48.018Z,70.92
2022-10-01T13:41:25.907Z,70.56
2022-10-01T13:44:22.113Z,70.80
2022-10-01T13:46:57.556Z,70.93
2022-10-01T13:49:28.858Z,70.78
2022-10-01T13:51:58.130Z,71.02
2022-10-01T13:54:43.581Z,70.95
2022-10-01T13:57:22.909Z,70.74
2022-10-01T14:00:16.962Z,70.89
2022-10-01T14:03:00.366Z,70.82
2022-10-01T14:05:35.194Z,70.70
2022-10-01T14:08:12.193Z,70.51
2022-10-01T14:11:08.255Z,70.71
2022-10-01T14:14:06.533Z,70.95
2022-10-01T14:16:42.014Z,70.92
2022-10-01T14:19:17.534Z,70.65
2022-10-01T14:21:45.181Z,70.77
2022-10-01T14:24:29.533Z,70.65
2022-10-01T14:27:09.587Z,70.97
2022-10-01T14:29:52.414Z,70.84
2022-10-01T14:32:42.086Z,70.87
2022-10-01T14:35:23.561Z,70.70
2022-10-01T14:37:51.761Z,71.12
2022-10-01T14:40:23.492Z,70.97
2022-10-01T14:43:03.325Z,70.76
2022-10-01T14:45:31.025Z,70.86
2022-10-01T14:48:03.574Z,71.03
2022-10-01T14:50:35.045Z,71.10
2022-10-01T14:53:03.081Z,71.14
2022-10-01T14:55:31.696Z,70.95
2022-10-01T14:57:59.396Z,70.64
2022-10-01T15:00:29.919Z,70.73
2022-10-01T15:03:10.237Z,70.93
2022-10-01T15:05:38.418Z,71.03
2022-10-01T15:08:24.239Z,71.29
2022-10-01T15:11:00.723Z,71.25
2022-10-01T15:13:38.140Z,71.37
2022-10-01T15:16:13.019Z,71.15
2022-10-01T15:18:46.574Z,71.17
2022-10-01T15:21:48.570Z,71.21
2022-10-01T15:24:30.229Z,71.30
2022-10-01T15:26:58.927Z,71.30
2022-10-01T15:29:27.034Z,71.53
2022-10-01T15:31:57.790Z,71.61
2022-10-01T15:34:27.523Z,71.81
2022-10-01T15:36:56.828Z,71.85
2022-10-01T15:39:38.628Z,71.76
2022-10-01T15:42:21.649Z,71.71
2022-10-01T15:44:50.122Z,71.90
2022-10-01T15:47:20.745Z,71.99
2022-10-01T15:50:16.877Z,71.79
2022-10-01T15:52:51.027Z,72.03
2022-10-01T15:55:34.133Z,71.82
2022-10-01T15:58:10.882Z,72.11
2022-10-01T16:00:52.498Z,72.13
2022-10-01T16:03:31.319Z,72.22
2022-10-01T16:06:01.923Z,72.51
2022-10-01T16:08:57.973Z,72.58
2022-10-01T16:11:31.969Z,72.57
2022-10-01T16:14:23.272Z,72.76
2022-10-01T16:16:53.185Z,72.68
2022-10-01T16:19:30.133Z,72.54
2022-10-01T16:22:31.871Z,72.75
2022-10-01T16:25:27.270Z,72.87
2022-10-01T16:28:04.078Z,72.82
2022-10-01T16:30:34.310Z,72.71
2022-10-01T16:33:04.661Z,73.15
2022-10-01T16:35:36.213Z,73.14
2022-10-01T16:38:09.975Z,73.14
2022-10-01T16:40:44.807Z,73.31
2022-10-01T16:43:23.751Z,73.39
2022-10-01T16:45:52.129Z,73.50
2022-10-01T16:48:23.236Z,73.48
2022-10-01T16:50:59.621Z,73.80
2022-10-01T16:53:29.120Z,73.62
2022-10-01T16:55:59.796Z,73.67
2022-10-01T16:58:29.591Z,73.70
2022-10-01T17:00:59.001Z,73.67
2022-10-01T17:03:28.920Z,73.95
2022-10-01T17:05:57.197Z,73.90
2022-10-01T17:08:24.973Z,73.97
2022-10-01T17:10:58.562Z,74.22
2022-10-01T17:13:30.444Z,74.36
2022-10-01T17:15:58.747Z,74.45
2022-10-01T17:18:26.764Z,74.28
2022-10-01T17:20:56.239Z,74.55
2022-10-01T17:23:24.468Z,74.51
2022-10-01T17:25:52.306Z,74.60
2022-10-01T17:28:20.730Z,74.73
2022-10-01T17:30:49.499Z,74.67
2022-10-01T17:33:21.946Z,74.87
2022-10-01T17:35:55.618Z,74.81
2022-10-01T17:38:23.732Z,75.02
2022-10-01T17:40:56.407Z,75.18
2022-10-01T17:43:24.605Z,75.11
2022-10-01T17:45:57.777Z,75.17
2022-10-01T17:48:27.363Z,75.16
2022-10-01T17:51:05.747Z,75.36
2022-10-01T17:53:41.855Z,75.42
2022-10-01T17:56:18.470Z,75.43
2022-10-01T17:58:46.745Z,75.72
2022-10-01T18:01:19.945Z,75.79
2022-10-01T18:03:52.360Z,75.78
2022-10-01T18:06:20.031Z,75.67
2022-10-01T18:08:56.319Z,75.63
2022-10-01T18:11:27.027Z,75.88
2022-10-01T18:13:54.773Z,75.96
2022-10-01T18:16:24.083Z,76.00
2022-10-01T18:21:48.529Z,76.17
2022-10-01T18:24:17.084Z,76.26
2022-10-01T18:26:45.899Z,76.31
2022-10-01T18:29:25.039Z,76.25
2022-10-01T18:31:59.197Z,76.32
2022-10-01T18:34:49.369Z,76.35
2022-10-01T18:37:40.139Z,76.36
2022-10-01T18:40:13.779Z,76.75
2022-10-01T18:42:44.927Z,76.79
2022-10-01T18:45:21.047Z,76.78
2022-10-01T18:48:10.008Z,76.93
2022-10-01T18:50:48.053Z,76.77
2022-10-01T18:53:30.580Z,77.14
2022-10-01T18:56:18.590Z,77.05
2022-10-01T18:59:23.931Z,77.17
2022-10-01T19:02:01.133Z,77.35
2022-10-01T19:05:19.772Z,77.44
2022-10-01T19:08:13.576Z,77.44
2022-10-01T19:11:01.376Z,77.63
2022-10-01T19:13:31.983Z,77.68
2022-10-01T19:16:11.997Z,77.62
2022-10-01T19:19:31.123Z,78.01
2022-10-01T19:22:10.971Z,77.69
2022-10-01T19:24:54.800Z,77.52
2022-10-01T19:27:49.530Z,77.74
2022-10-01T19:30:19.931Z,77.75
2022-10-01T19:32:58.276Z,78.02
2022-10-01T19:35:28.567Z,78.06
2022-10-01T19:38:14.961Z,77.75
2022-10-01T19:40:54.166Z,78.31
2022-10-01T19:43:27.710Z,78.71
2022-10-01T19:46:19.181Z,78.41
2022-10-01T19:49:00.727Z,78.89
2022-10-01T19:51:36.253Z,78.96
2022-10-01T19:54:03.904Z,78.64
2022-10-01T19:56:34.036Z,79.09
2022-10-01T19:59:10.996Z,79.03
2022-10-01T20:01:48.618Z,79.05
2022-10-01T20:04:23.428Z,78.80
2022-10-01T20:06:58.360Z,78.83
2022-10-01T20:09:39.350Z,79.00
2022-10-01T20:12:06.946Z,79.00
2022-10-01T20:15:21.852Z,79.32
2022-10-01T20:17:55.388Z,79.37
2022-10-01T20:20:30.897Z,79.32
2022-10-01T20:23:11.257Z,79.21
2022-10-01T20:25:44.598Z,79.38
2022-10-01T20:28:36.552Z,79.57
2022-10-01T20:31:23.273Z,79.54
2022-10-01T20:34:21.772Z,79.54
2022-10-01T20:37:23.441Z,79.55
2022-10-01T20:39:57.948Z,79.76
2022-10-01T20:42:38.821Z,79.91
2022-10-01T20:45:18.129Z,79.68
2022-10-01T20:47:54.109Z,79.94
2022-10-01T20:50:39.224Z,80.60
2022-10-01T20:53:18.207Z,80.73
2022-10-01T20:55:56.004Z,80.80
2022-10-01T20:58:31.768Z,80.94
2022-10-01T21:01:17.202Z,81.34
2022-10-01T21:03:51.995Z,81.56
2022-10-01T21:06:34.056Z,81.76
2022-10-01T21:09:19.896Z,81.46
2022-10-01T21:11:58.473Z,81.35
2022-10-01T21:14:44.451Z,81.43
2022-10-01T21:17:30.622Z,81.53
2022-10-01T21:20:10.518Z,81.80
2022-10-01T21:22:47.058Z,81.68
2022-10-01T21:25:32.675Z,81.67
2022-10-01T21:28:04.187Z,81.67
2022-10-01T21:30:53.772Z,82.00
2022-10-01T21:33:34.159Z,82.01
2022-10-01T21:36:45.734Z,82.14
2022-10-01T21:39:32.527Z,81.91
2022-10-01T21:42:22.414Z,82.02
2022-10-01T21:45:25.901Z,82.40
2022-10-01T21:48:16.224Z,82.21
2022-10-01T21:50:57.027Z,82.38
2022-10-01T21:53:39.783Z,82.13
2022-10-01T21:56:18.482Z,82.17
2022-10-01T21:59:16.976Z,82.21
2022-10-01T22:02:04.840Z,82.32
2022-10-01T22:04:50.712Z,82.20
2022-10-01T22:07:44.489Z,82.59
2022-10-01T22:10:25.085Z,82.44
2022-10-01T22:12:58.772Z,82.33
2022-10-01T22:15:41.562Z,82.40
2022-10-01T22:18:18.350Z,82.27
2022-10-01T22:20:48.168Z,82.54
2022-10-01T22:23:20.138Z,82.47
2022-10-01T22:26:02.015Z,82.70
2022-10-01T22:28:39.121Z,82.77
2022-10-01T22:31:14.584Z,82.90
2022-10-01T22:33:49.162Z,82.67
2022-10-01T22:36:29.215Z,82.94
2022-10-01T22:39:03.419Z,82.76
2022-10-01T22:42:32.599Z,82.54
2022-10-01T22:45:09.707Z,82.96
2022-10-01T22:47:56.107Z,83.01
2022-10-01T22:50:42.200Z,83.31
2022-10-01T22:53:21.659Z,83.15
2022-10-01T22:55:55.235Z,83.20
2022-10-01T22:58:42.149Z,83.57
2022-10-01T23:01:46.887Z,83.30
2022-10-01T23:04:15.180Z,83.45
2022-10-01T23:07:21.471Z,83.39
2022-10-01T23:10:10.175Z,83.50
2022-10-01T23:13:11.927Z,83.56
2022-10-01T23:16:06.292Z,83.47
2022-10-01T23:18:57.330Z,83.53
2022-10-01T23:21:33.899Z,83.73
2022-10-01T23:24:32.390Z,83.41
2022-10-01T23:27:27.435Z,83.77
2022-10-01T23:30:16.423Z,83.70
2022-10-01T23:33:10.500Z,84.02
2022-10-01T23:35:47.091Z,83.74
2022-10-01T23:38:17.827Z,83.80
2022-10-01T23:40:48.265Z,83.80
2022-10-01T23:43:31.447Z,83.86
2022-10-01T23:46:14.446Z,84.21
2022-10-01T23:48:50.727Z,83.95
2022-10-01T23:51:26.076Z,84.40
2022-10-01T23:53:53.661Z,84.38
2022-10-01T23:56:50.553Z,84.50
2022-10-01T23:59:39.038Z,84.18
